sensor_id;sensor_type;location;lat;lon;timestamp;pressure;altitude;pressure_sealevel;temperature;humidity
56074;BME280;41950;55.840;37.442;2024-03-08T00:02:16;99727.13;;;-4.93;72.66
56074;BME280;41950;55.840;37.442;2024-03-08T00:04:42;99752.25;;;-4.78;72.51
56074;BME280;41950;55.840;37.442;2024-03-08T00:07:08;99726.34;;;-4.92;72.76
56074;BME280;41950;55.840;37.442;2024-03-08T00:09:33;99731.53;;;-4.89;72.64
56074;BME280;41950;55.840;37.442;2024-03-08T00:11:59;99742.19;;;-4.77;72.76
56074;BME280;41950;55.840;37.442;2024-03-08T00:14:25;99732.53;;;-4.85;72.67
56074;BME280;41950;55.840;37.442;2024-03-08T00:16:50;99738.66;;;-4.80;72.54
56074;BME280;41950;55.840;37.442;2024-03-08T00:19:18;99727.72;;;-4.79;72.72
56074;BME280;41950;55.840;37.442;2024-03-08T00:21:44;99627.25;;;-5.38;72.56
56074;BME280;41950;55.840;37.442;2024-03-08T00:24:10;99707.94;;;-4.88;72.72
56074;BME280;41950;55.840;37.442;2024-03-08T00:26:36;99709.41;;;-4.93;72.86
56074;BME280;41950;55.840;37.442;2024-03-08T00:29:02;99705.28;;;-4.91;72.69
56074;BME280;41950;55.840;37.442;2024-03-08T00:31:29;99716.66;;;-4.81;72.57
56074;BME280;41950;55.840;37.442;2024-03-08T00:33:57;99710.00;;;-4.79;72.56
56074;BME280;41950;55.840;37.442;2024-03-08T00:36:23;99685.22;;;-4.86;72.55
56074;BME280;41950;55.840;37.442;2024-03-08T00:38:49;99615.63;;;-5.15;72.31
56074;BME280;41950;55.840;37.442;2024-03-08T00:41:14;99666.38;;;-4.74;72.14
56074;BME280;41950;55.840;37.442;2024-03-08T00:43:40;99704.28;;;-4.56;71.86
56074;BME280;41950;55.840;37.442;2024-03-08T00:46:06;99642.66;;;-4.95;71.65
56074;BME280;41950;55.840;37.442;2024-03-08T00:48:31;99693.84;;;-4.63;71.81
56074;BME280;41950;55.840;37.442;2024-03-08T00:50:57;99667.22;;;-4.73;71.75
56074;BME280;41950;55.840;37.442;2024-03-08T00:53:23;99667.34;;;-4.70;71.90
56074;BME280;41950;55.840;37.442;2024-03-08T00:55:48;99618.13;;;-4.96;71.73
56074;BME280;41950;55.840;37.442;2024-03-08T00:58:15;99678.91;;;-4.57;71.90
56074;BME280;41950;55.840;37.442;2024-03-08T01:00:41;99649.56;;;-4.72;71.79
56074;BME280;41950;55.840;37.442;2024-03-08T01:03:07;99664.16;;;-4.66;71.86
56074;BME280;41950;55.840;37.442;2024-03-08T01:05:33;99650.38;;;-4.73;71.70
56074;BME280;41950;55.840;37.442;2024-03-08T01:08:01;99619.16;;;-4.92;71.86
56074;BME280;41950;55.840;37.442;2024-03-08T01:10:29;99668.16;;;-4.52;71.73
56074;BME280;41950;55.840;37.442;2024-03-08T01:12:54;99633.56;;;-4.71;71.51
56074;BME280;41950;55.840;37.442;2024-03-08T01:15:23;99646.09;;;-4.54;71.42
56074;BME280;41950;55.840;37.442;2024-03-08T01:17:49;99638.69;;;-4.50;71.25
56074;BME280;41950;55.840;37.442;2024-03-08T01:20:15;99657.25;;;-4.30;71.12
56074;BME280;41950;55.840;37.442;2024-03-08T01:22:41;99647.91;;;-4.31;70.79
56074;BME280;41950;55.840;37.442;2024-03-08T01:25:07;99672.41;;;-4.11;70.70
56074;BME280;41950;55.840;37.442;2024-03-08T01:27:34;99568.56;;;-4.72;70.32
56074;BME280;41950;55.840;37.442;2024-03-08T01:30:01;99639.50;;;-4.30;70.54
56074;BME280;41950;55.840;37.442;2024-03-08T01:32:27;99654.22;;;-4.21;70.58
56074;BME280;41950;55.840;37.442;2024-03-08T01:34:53;99600.25;;;-4.60;70.56
56074;BME280;41950;55.840;37.442;2024-03-08T01:37:19;99663.44;;;-4.23;70.74
56074;BME280;41950;55.840;37.442;2024-03-08T01:39:45;99666.75;;;-4.24;70.61
56074;BME280;41950;55.840;37.442;2024-03-08T01:42:10;99658.66;;;-4.37;70.75
56074;BME280;41950;55.840;37.442;2024-03-08T01:44:38;99645.84;;;-4.60;71.10
56074;BME280;41950;55.840;37.442;2024-03-08T01:47:05;99653.81;;;-4.71;71.49
56074;BME280;41950;55.840;37.442;2024-03-08T01:49:31;99671.38;;;-4.75;71.68
56074;BME280;41950;55.840;37.442;2024-03-08T01:51:57;99617.44;;;-5.13;72.16
56074;BME280;41950;55.840;37.442;2024-03-08T01:54:23;99650.97;;;-4.98;72.31
56074;BME280;41950;55.840;37.442;2024-03-08T01:56:49;99642.00;;;-5.10;72.82
56074;BME280;41950;55.840;37.442;2024-03-08T01:59:16;99597.38;;;-5.47;73.03
56074;BME280;41950;55.840;37.442;2024-03-08T02:01:42;99645.19;;;-5.14;73.51
56074;BME280;41950;55.840;37.442;2024-03-08T02:04:08;99647.34;;;-5.22;73.74
56074;BME280;41950;55.840;37.442;2024-03-08T02:06:35;99629.91;;;-5.35;73.52
56074;BME280;41950;55.840;37.442;2024-03-08T02:09:01;99640.44;;;-5.26;73.84
56074;BME280;41950;55.840;37.442;2024-03-08T02:11:33;99609.91;;;-5.48;74.10
56074;BME280;41950;55.840;37.442;2024-03-08T02:13:59;99644.22;;;-5.36;74.40
56074;BME280;41950;55.840;37.442;2024-03-08T02:16:25;99648.34;;;-5.38;74.80
56074;BME280;41950;55.840;37.442;2024-03-08T02:18:50;99624.63;;;-5.59;74.86
56074;BME280;41950;55.840;37.442;2024-03-08T02:21:17;99646.28;;;-5.46;75.17
56074;BME280;41950;55.840;37.442;2024-03-08T02:23:47;99647.84;;;-5.48;75.12
56074;BME280;41950;55.840;37.442;2024-03-08T02:26:12;99645.44;;;-5.47;75.16
56074;BME280;41950;55.840;37.442;2024-03-08T02:28:38;99635.94;;;-5.51;75.48
56074;BME280;41950;55.840;37.442;2024-03-08T02:31:04;99644.19;;;-5.55;76.04
56074;BME280;41950;55.840;37.442;2024-03-08T02:33:33;99552.88;;;-6.17;76.31
56074;BME280;41950;55.840;37.442;2024-03-08T02:35:59;99640.38;;;-5.65;76.13
56074;BME280;41950;55.840;37.442;2024-03-08T02:38:25;99613.25;;;-5.86;76.33
56074;BME280;41950;55.840;37.442;2024-03-08T02:40:51;99617.91;;;-5.76;76.45
56074;BME280;41950;55.840;37.442;2024-03-08T02:43:18;99561.94;;;-6.03;76.60
56074;BME280;41950;55.840;37.442;2024-03-08T02:45:45;99641.44;;;-5.60;76.48
56074;BME280;41950;55.840;37.442;2024-03-08T02:48:13;99609.53;;;-5.75;76.55
56074;BME280;41950;55.840;37.442;2024-03-08T02:50:40;99627.06;;;-5.61;76.59
56074;BME280;41950;55.840;37.442;2024-03-08T02:53:08;99589.31;;;-5.75;76.46
56074;BME280;41950;55.840;37.442;2024-03-08T02:55:33;99590.41;;;-5.70;76.55
56074;BME280;41950;55.840;37.442;2024-03-08T02:58:04;99597.06;;;-5.72;76.51
56074;BME280;41950;55.840;37.442;2024-03-08T03:00:30;99590.84;;;-5.79;77.00
56074;BME280;41950;55.840;37.442;2024-03-08T03:02:57;99633.13;;;-5.57;77.29
56074;BME280;41950;55.840;37.442;2024-03-08T03:05:24;99616.91;;;-5.62;77.67
56074;BME280;41950;55.840;37.442;2024-03-08T03:07:50;99599.59;;;-5.72;77.93
56074;BME280;41950;55.840;37.442;2024-03-08T03:10:17;99582.25;;;-5.82;78.40
56074;BME280;41950;55.840;37.442;2024-03-08T03:12:43;99567.69;;;-5.88;78.20
56074;BME280;41950;55.840;37.442;2024-03-08T03:15:10;99585.22;;;-5.73;78.42
56074;BME280;41950;55.840;37.442;2024-03-08T03:17:37;99587.03;;;-5.71;78.37
56074;BME280;41950;55.840;37.442;2024-03-08T03:20:05;99577.91;;;-5.67;78.37
56074;BME280;41950;55.840;37.442;2024-03-08T03:22:36;99585.75;;;-5.61;78.58
56074;BME280;41950;55.840;37.442;2024-03-08T03:25:02;99562.75;;;-5.67;78.74
56074;BME280;41950;55.840;37.442;2024-03-08T03:27:30;99570.47;;;-5.64;78.85
56074;BME280;41950;55.840;37.442;2024-03-08T03:29:58;99589.50;;;-5.53;78.89
56074;BME280;41950;55.840;37.442;2024-03-08T03:32:24;99516.84;;;-5.96;78.99
56074;BME280;41950;55.840;37.442;2024-03-08T03:34:49;99496.06;;;-6.08;78.90
56074;BME280;41950;55.840;37.442;2024-03-08T03:37:21;99561.00;;;-5.68;79.26
56074;BME280;41950;55.840;37.442;2024-03-08T03:39:47;99584.44;;;-5.53;79.35
56074;BME280;41950;55.840;37.442;2024-03-08T03:42:18;99581.91;;;-5.53;79.39
56074;BME280;41950;55.840;37.442;2024-03-08T03:44:48;99594.41;;;-5.56;79.72
56074;BME280;41950;55.840;37.442;2024-03-08T03:47:17;99555.59;;;-5.76;80.06
56074;BME280;41950;55.840;37.442;2024-03-08T03:49:43;99575.03;;;-5.75;80.42
56074;BME280;41950;55.840;37.442;2024-03-08T03:52:09;99576.31;;;-5.65;80.65
56074;BME280;41950;55.840;37.442;2024-03-08T03:54:35;99576.44;;;-5.62;80.92
56074;BME280;41950;55.840;37.442;2024-03-08T03:57:01;99574.06;;;-5.59;81.00
56074;BME280;41950;55.840;37.442;2024-03-08T03:59:28;99582.34;;;-5.44;80.96
56074;BME280;41950;55.840;37.442;2024-03-08T04:01:54;99583.94;;;-5.46;80.72
56074;BME280;41950;55.840;37.442;2024-03-08T04:04:23;99578.94;;;-5.44;80.63
56074;BME280;41950;55.840;37.442;2024-03-08T04:06:50;99575.69;;;-5.42;80.60
56074;BME280;41950;55.840;37.442;2024-03-08T04:09:16;99550.19;;;-5.46;80.55
56074;BME280;41950;55.840;37.442;2024-03-08T04:11:45;99573.47;;;-5.34;80.61
56074;BME280;41950;55.840;37.442;2024-03-08T04:14:10;99535.72;;;-5.49;80.47
56074;BME280;41950;55.840;37.442;2024-03-08T04:16:37;99561.88;;;-5.29;80.58
56074;BME280;41950;55.840;37.442;2024-03-08T04:19:02;99534.78;;;-5.51;80.52
56074;BME280;41950;55.840;37.442;2024-03-08T04:21:31;99540.41;;;-5.39;80.47
56074;BME280;41950;55.840;37.442;2024-03-08T04:23:57;99540.28;;;-5.42;80.63
56074;BME280;41950;55.840;37.442;2024-03-08T04:26:22;99552.91;;;-5.22;80.33
56074;BME280;41950;55.840;37.442;2024-03-08T04:28:48;99570.97;;;-5.15;80.58
56074;BME280;41950;55.840;37.442;2024-03-08T04:31:13;99422.34;;;-5.99;80.29
56074;BME280;41950;55.840;37.442;2024-03-08T04:33:41;99562.50;;;-5.15;80.47
56074;BME280;41950;55.840;37.442;2024-03-08T04:36:07;99465.81;;;-5.68;80.35
56074;BME280;41950;55.840;37.442;2024-03-08T04:38:33;99562.31;;;-5.20;80.80
56074;BME280;41950;55.840;37.442;2024-03-08T04:40:59;99484.06;;;-5.75;81.10
56074;BME280;41950;55.840;37.442;2024-03-08T04:43:28;99555.31;;;-5.45;82.25
56074;BME280;41950;55.840;37.442;2024-03-08T04:45:55;99519.78;;;-5.67;82.53
56074;BME280;41950;55.840;37.442;2024-03-08T04:48:21;99511.25;;;-5.69;82.68
56074;BME280;41950;55.840;37.442;2024-03-08T04:50:47;99540.53;;;-5.36;82.46
56074;BME280;41950;55.840;37.442;2024-03-08T04:53:12;99543.84;;;-5.37;82.58
56074;BME280;41950;55.840;37.442;2024-03-08T04:55:39;99545.97;;;-5.26;82.60
56074;BME280;41950;55.840;37.442;2024-03-08T04:58:04;99512.66;;;-5.37;82.66
56074;BME280;41950;55.840;37.442;2024-03-08T05:00:32;99537.25;;;-5.14;82.42
56074;BME280;41950;55.840;37.442;2024-03-08T05:02:58;99532.22;;;-5.14;82.29
56074;BME280;41950;55.840;37.442;2024-03-08T05:05:24;99456.81;;;-5.42;81.95
56074;BME280;41950;55.840;37.442;2024-03-08T05:07:50;99534.91;;;-4.90;81.77
56074;BME280;41950;55.840;37.442;2024-03-08T05:10:16;99516.28;;;-5.11;82.17
56074;BME280;41950;55.840;37.442;2024-03-08T05:12:44;99522.28;;;-5.09;82.32
56074;BME280;41950;55.840;37.442;2024-03-08T05:15:10;99522.22;;;-5.11;82.48
56074;BME280;41950;55.840;37.442;2024-03-08T05:17:36;99527.91;;;-4.95;82.44
56074;BME280;41950;55.840;37.442;2024-03-08T05:20:02;99498.38;;;-4.95;82.06
56074;BME280;41950;55.840;37.442;2024-03-08T05:22:28;99521.13;;;-4.76;81.96
56074;BME280;41950;55.840;37.442;2024-03-08T05:24:54;99422.72;;;-5.31;81.64
56074;BME280;41950;55.840;37.442;2024-03-08T05:27:20;99485.63;;;-4.98;81.67
56074;BME280;41950;55.840;37.442;2024-03-08T05:29:45;99516.00;;;-4.77;81.69
56074;BME280;41950;55.840;37.442;2024-03-08T05:32:11;99506.94;;;-4.93;82.03
56074;BME280;41950;55.840;37.442;2024-03-08T05:34:37;99517.59;;;-4.79;81.98
56074;BME280;41950;55.840;37.442;2024-03-08T05:37:04;99500.00;;;-4.76;81.88
56074;BME280;41950;55.840;37.442;2024-03-08T05:39:29;99430.63;;;-5.02;81.40
56074;BME280;41950;55.840;37.442;2024-03-08T05:41:55;99504.44;;;-4.71;81.68
56074;BME280;41950;55.840;37.442;2024-03-08T05:44:21;99469.16;;;-4.88;81.71
56074;BME280;41950;55.840;37.442;2024-03-08T05:46:47;99509.69;;;-4.66;81.54
56074;BME280;41950;55.840;37.442;2024-03-08T05:49:13;99454.38;;;-4.99;81.71
56074;BME280;41950;55.840;37.442;2024-03-08T05:51:39;99515.44;;;-4.49;81.89
56074;BME280;41950;55.840;37.442;2024-03-08T05:54:07;99512.09;;;-4.48;81.34
56074;BME280;41950;55.840;37.442;2024-03-08T05:56:37;99491.72;;;-4.51;81.50
56074;BME280;41950;55.840;37.442;2024-03-08T05:59:03;99502.59;;;-4.33;81.19
56074;BME280;41950;55.840;37.442;2024-03-08T06:01:30;99504.78;;;-4.20;80.91
56074;BME280;41950;55.840;37.442;2024-03-08T06:04:02;99509.94;;;-4.17;80.40
56074;BME280;41950;55.840;37.442;2024-03-08T06:06:29;99512.19;;;-4.24;80.11
56074;BME280;41950;55.840;37.442;2024-03-08T06:08:55;99439.69;;;-4.65;80.43
56074;BME280;41950;55.840;37.442;2024-03-08T06:11:25;99516.75;;;-4.16;80.16
56074;BME280;41950;55.840;37.442;2024-03-08T06:13:55;99476.63;;;-4.27;80.19
56074;BME280;41950;55.840;37.442;2024-03-08T06:16:26;99517.09;;;-3.84;79.66
56074;BME280;41950;55.840;37.442;2024-03-08T06:18:56;99450.53;;;-4.02;79.29
56074;BME280;41950;55.840;37.442;2024-03-08T06:21:23;99466.34;;;-3.86;78.52
56074;BME280;41950;55.840;37.442;2024-03-08T06:23:53;99523.97;;;-3.58;77.78
56074;BME280;41950;55.840;37.442;2024-03-08T06:26:21;99508.16;;;-3.75;77.82
56074;BME280;41950;55.840;37.442;2024-03-08T06:28:48;99507.75;;;-3.85;78.08
56074;BME280;41950;55.840;37.442;2024-03-08T06:31:13;99499.59;;;-3.78;78.48
56074;BME280;41950;55.840;37.442;2024-03-08T06:33:40;99494.84;;;-3.69;78.01
56074;BME280;41950;55.840;37.442;2024-03-08T06:36:06;99484.06;;;-3.63;77.62
56074;BME280;41950;55.840;37.442;2024-03-08T06:38:32;99502.31;;;-3.50;76.99
56074;BME280;41950;55.840;37.442;2024-03-08T06:40:58;99480.66;;;-3.64;77.06
56074;BME280;41950;55.840;37.442;2024-03-08T06:43:24;99507.34;;;-3.51;77.10
56074;BME280;41950;55.840;37.442;2024-03-08T06:45:55;99509.31;;;-3.43;77.11
56074;BME280;41950;55.840;37.442;2024-03-08T06:48:21;99502.53;;;-3.44;76.87
56074;BME280;41950;55.840;37.442;2024-03-08T06:50:47;99411.91;;;-3.95;76.93
56074;BME280;41950;55.840;37.442;2024-03-08T06:53:13;99492.41;;;-3.18;76.92
56074;BME280;41950;55.840;37.442;2024-03-08T06:55:39;99482.19;;;-2.96;76.17
56074;BME280;41950;55.840;37.442;2024-03-08T06:58:06;99452.25;;;-3.04;75.33
56074;BME280;41950;55.840;37.442;2024-03-08T07:00:33;99468.66;;;-2.95;74.79
56074;BME280;41950;55.840;37.442;2024-03-08T07:02:59;99497.00;;;-2.83;75.10
56074;BME280;41950;55.840;37.442;2024-03-08T07:05:27;99493.25;;;-2.68;74.88
56074;BME280;41950;55.840;37.442;2024-03-08T07:07:53;99484.00;;;-2.66;74.19
56074;BME280;41950;55.840;37.442;2024-03-08T07:10:21;99492.16;;;-2.48;74.46
56074;BME280;41950;55.840;37.442;2024-03-08T07:12:49;99489.03;;;-2.41;74.06
56074;BME280;41950;55.840;37.442;2024-03-08T07:15:14;99495.88;;;-2.38;73.41
56074;BME280;41950;55.840;37.442;2024-03-08T07:17:41;99495.84;;;-2.40;73.77
56074;BME280;41950;55.840;37.442;2024-03-08T07:20:10;99496.88;;;-2.33;72.95
56074;BME280;41950;55.840;37.442;2024-03-08T07:22:38;99481.16;;;-2.49;73.08
56074;BME280;41950;55.840;37.442;2024-03-08T07:25:07;99436.34;;;-2.73;73.42
56074;BME280;41950;55.840;37.442;2024-03-08T07:27:33;99485.38;;;-2.49;73.57
56074;BME280;41950;55.840;37.442;2024-03-08T07:30:05;99496.06;;;-2.32;73.39
56074;BME280;41950;55.840;37.442;2024-03-08T07:32:31;99455.22;;;-2.38;72.95
56074;BME280;41950;55.840;37.442;2024-03-08T07:34:57;99483.50;;;-2.28;72.55
56074;BME280;41950;55.840;37.442;2024-03-08T07:37:23;99405.88;;;-2.73;72.69
56074;BME280;41950;55.840;37.442;2024-03-08T07:39:49;99493.22;;;-2.14;72.67
56074;BME280;41950;55.840;37.442;2024-03-08T07:42:15;99493.16;;;-2.17;72.59
56074;BME280;41950;55.840;37.442;2024-03-08T07:44:42;99463.06;;;-2.31;72.68
56074;BME280;41950;55.840;37.442;2024-03-08T07:47:08;99475.09;;;-2.25;72.70
56074;BME280;41950;55.840;37.442;2024-03-08T07:49:37;99498.09;;;-2.21;73.37
56074;BME280;41950;55.840;37.442;2024-03-08T07:52:04;99495.88;;;-2.11;73.47
56074;BME280;41950;55.840;37.442;2024-03-08T07:54:30;99462.91;;;-2.08;73.06
56074;BME280;41950;55.840;37.442;2024-03-08T07:56:56;99490.09;;;-1.77;72.79
56074;BME280;41950;55.840;37.442;2024-03-08T07:59:22;99469.84;;;-1.73;71.77
56074;BME280;41950;55.840;37.442;2024-03-08T08:01:47;99488.88;;;-1.90;72.39
56074;BME280;41950;55.840;37.442;2024-03-08T08:04:13;99460.78;;;-2.22;73.14
56074;BME280;41950;55.840;37.442;2024-03-08T08:06:40;99492.69;;;-2.04;73.62
56074;BME280;41950;55.840;37.442;2024-03-08T08:09:08;99447.44;;;-2.16;73.68
56074;BME280;41950;55.840;37.442;2024-03-08T08:11:40;99484.44;;;-1.96;73.36
56074;BME280;41950;55.840;37.442;2024-03-08T08:14:09;99459.16;;;-2.20;73.64
56074;BME280;41950;55.840;37.442;2024-03-08T08:16:36;99451.41;;;-2.24;74.07
56074;BME280;41950;55.840;37.442;2024-03-08T08:19:08;99485.41;;;-1.92;74.11
56074;BME280;41950;55.840;37.442;2024-03-08T08:21:34;99385.22;;;-2.27;73.27
56074;BME280;41950;55.840;37.442;2024-03-08T08:24:05;99468.50;;;-1.30;73.21
56074;BME280;41950;55.840;37.442;2024-03-08T08:26:31;99426.41;;;-1.49;70.94
56074;BME280;41950;55.840;37.442;2024-03-08T08:28:59;99487.84;;;-1.37;72.03
56074;BME280;41950;55.840;37.442;2024-03-08T08:31:25;99442.81;;;-1.69;72.36
56074;BME280;41950;55.840;37.442;2024-03-08T08:33:51;99486.78;;;-1.43;72.48
56074;BME280;41950;55.840;37.442;2024-03-08T08:36:23;99472.56;;;-1.37;72.50
56074;BME280;41950;55.840;37.442;2024-03-08T08:38:49;99476.75;;;-1.37;72.26
56074;BME280;41950;55.840;37.442;2024-03-08T08:41:15;99482.13;;;-1.28;72.51
56074;BME280;41950;55.840;37.442;2024-03-08T08:43:43;99434.91;;;-1.48;72.25
56074;BME280;41950;55.840;37.442;2024-03-08T08:46:11;99451.88;;;-1.16;71.83
56074;BME280;41950;55.840;37.442;2024-03-08T08:48:40;99467.13;;;-0.83;71.57
56074;BME280;41950;55.840;37.442;2024-03-08T08:51:09;99427.94;;;-0.89;70.66
56074;BME280;41950;55.840;37.442;2024-03-08T08:53:41;99463.97;;;-0.74;70.64
56074;BME280;41950;55.840;37.442;2024-03-08T08:56:11;99473.38;;;-0.72;71.04
56074;BME280;41950;55.840;37.442;2024-03-08T08:58:42;99454.38;;;-0.84;71.11
56074;BME280;41950;55.840;37.442;2024-03-08T09:01:08;99385.25;;;-1.34;71.15
56074;BME280;41950;55.840;37.442;2024-03-08T09:03:36;99425.19;;;-0.97;71.71
56074;BME280;41950;55.840;37.442;2024-03-08T09:06:05;99426.72;;;-0.69;71.08
56074;BME280;41950;55.840;37.442;2024-03-08T09:08:35;99395.38;;;-0.65;69.85
56074;BME280;41950;55.840;37.442;2024-03-08T09:11:01;99384.28;;;-0.67;69.89
56074;BME280;41950;55.840;37.442;2024-03-08T09:13:27;99385.56;;;-0.48;69.33
56074;BME280;41950;55.840;37.442;2024-03-08T09:15:53;99362.69;;;-0.45;68.76
56074;BME280;41950;55.840;37.442;2024-03-08T09:18:19;99445.06;;;0.32;68.77
56074;BME280;41950;55.840;37.442;2024-03-08T09:20:44;99420.28;;;0.26;67.79
56074;BME280;41950;55.840;37.442;2024-03-08T09:23:10;99428.34;;;0.48;67.81
56074;BME280;41950;55.840;37.442;2024-03-08T09:25:36;99367.78;;;-0.05;66.58
56074;BME280;41950;55.840;37.442;2024-03-08T09:28:03;99434.22;;;0.44;67.08
56074;BME280;41950;55.840;37.442;2024-03-08T09:30:28;99434.00;;;0.32;67.01
56074;BME280;41950;55.840;37.442;2024-03-08T09:32:54;99465.88;;;0.52;66.63
56074;BME280;41950;55.840;37.442;2024-03-08T09:35:20;99467.47;;;0.05;67.48
56074;BME280;41950;55.840;37.442;2024-03-08T09:37:45;99439.53;;;-0.28;68.50
56074;BME280;41950;55.840;37.442;2024-03-08T09:40:17;99459.34;;;0.24;68.58
56074;BME280;41950;55.840;37.442;2024-03-08T09:42:48;99386.75;;;0.08;67.65
56074;BME280;41950;55.840;37.442;2024-03-08T09:45:14;99449.72;;;0.53;67.28
56074;BME280;41950;55.840;37.442;2024-03-08T09:47:43;99421.47;;;0.44;67.06
56074;BME280;41950;55.840;37.442;2024-03-08T09:50:10;99434.31;;;0.48;66.98
56074;BME280;41950;55.840;37.442;2024-03-08T09:52:41;99425.03;;;0.53;66.86
56074;BME280;41950;55.840;37.442;2024-03-08T09:55:07;99434.47;;;0.56;66.93
56074;BME280;41950;55.840;37.442;2024-03-08T09:57:33;99419.31;;;0.65;66.62
56074;BME280;41950;55.840;37.442;2024-03-08T10:00:02;99440.47;;;0.58;66.73
56074;BME280;41950;55.840;37.442;2024-03-08T10:02:33;99372.84;;;-0.06;67.41
56074;BME280;41950;55.840;37.442;2024-03-08T10:05:00;99461.06;;;0.25;68.00
56074;BME280;41950;55.840;37.442;2024-03-08T10:07:29;99429.44;;;0.17;68.50
56074;BME280;41950;55.840;37.442;2024-03-08T10:09:54;99414.94;;;0.14;67.99
56074;BME280;41950;55.840;37.442;2024-03-08T10:12:20;99447.63;;;0.32;68.33
56074;BME280;41950;55.840;37.442;2024-03-08T10:14:46;99428.50;;;0.12;68.42
56074;BME280;41950;55.840;37.442;2024-03-08T10:17:12;99422.94;;;-0.10;68.91
56074;BME280;41950;55.840;37.442;2024-03-08T10:19:38;99431.56;;;-0.03;69.41
56074;BME280;41950;55.840;37.442;2024-03-08T10:22:05;99409.44;;;-0.04;69.17
56074;BME280;41950;55.840;37.442;2024-03-08T10:24:32;99430.31;;;0.17;68.83
56074;BME280;41950;55.840;37.442;2024-03-08T10:27:00;99417.38;;;0.08;68.71
56074;BME280;41950;55.840;37.442;2024-03-08T10:29:27;99369.53;;;-0.02;68.80
56074;BME280;41950;55.840;37.442;2024-03-08T10:31:54;99425.28;;;0.22;68.56
56074;BME280;41950;55.840;37.442;2024-03-08T10:34:22;99379.34;;;-0.22;68.91
56074;BME280;41950;55.840;37.442;2024-03-08T10:36:50;99427.53;;;0.05;69.36
56074;BME280;41950;55.840;37.442;2024-03-08T10:41:59;99434.94;;;0.37;68.75
56074;BME280;41950;55.840;37.442;2024-03-08T10:49:39;99421.38;;;0.39;68.27
56074;BME280;41950;55.840;37.442;2024-03-08T10:52:11;99418.84;;;0.41;68.40
56074;BME280;41950;55.840;37.442;2024-03-08T10:54:39;99406.25;;;0.50;67.98
56074;BME280;41950;55.840;37.442;2024-03-08T10:57:06;99416.19;;;0.81;67.57
56074;BME280;41950;55.840;37.442;2024-03-08T10:59:34;99436.16;;;1.04;66.79
56074;BME280;41950;55.840;37.442;2024-03-08T11:02:00;99432.44;;;0.85;66.68
56074;BME280;41950;55.840;37.442;2024-03-08T11:04:25;99431.94;;;0.56;67.26
56074;BME280;41950;55.840;37.442;2024-03-08T11:06:52;99420.28;;;0.26;68.12
56074;BME280;41950;55.840;37.442;2024-03-08T11:09:31;99386.47;;;-0.06;68.70
56074;BME280;41950;55.840;37.442;2024-03-08T11:14:45;99434.38;;;0.51;68.69
56074;BME280;41950;55.840;37.442;2024-03-08T11:20:11;99416.09;;;0.77;67.55
56074;BME280;41950;55.840;37.442;2024-03-08T11:22:49;99379.72;;;0.40;66.99
56074;BME280;41950;55.840;37.442;2024-03-08T11:25:49;99432.56;;;0.46;67.71
56074;BME280;41950;55.840;37.442;2024-03-08T11:30:46;99404.81;;;0.64;68.10
56074;BME280;41950;55.840;37.442;2024-03-08T11:33:15;99374.09;;;0.58;66.82
56074;BME280;41950;55.840;37.442;2024-03-08T11:35:42;99398.16;;;0.72;67.34
56074;BME280;41950;55.840;37.442;2024-03-08T11:38:11;99414.78;;;0.99;67.06
56074;BME280;41950;55.840;37.442;2024-03-08T11:40:39;99405.25;;;0.88;66.81
56074;BME280;41950;55.840;37.442;2024-03-08T11:43:05;99409.31;;;0.77;67.06
56074;BME280;41950;55.840;37.442;2024-03-08T11:45:35;99379.34;;;0.67;67.16
56074;BME280;41950;55.840;37.442;2024-03-08T11:48:06;99392.94;;;0.66;67.09
56074;BME280;41950;55.840;37.442;2024-03-08T11:50:32;99412.88;;;0.85;66.75
56074;BME280;41950;55.840;37.442;2024-03-08T11:53:04;99413.72;;;0.86;67.27
56074;BME280;41950;55.840;37.442;2024-03-08T11:55:33;99418.09;;;0.91;66.92
56074;BME280;41950;55.840;37.442;2024-03-08T11:58:05;99418.97;;;0.93;66.06
56074;BME280;41950;55.840;37.442;2024-03-08T12:00:34;99410.09;;;0.73;66.85
56074;BME280;41950;55.840;37.442;2024-03-08T12:03:05;99424.00;;;0.89;66.59
56074;BME280;41950;55.840;37.442;2024-03-08T12:05:32;99423.75;;;0.75;66.71
56074;BME280;41950;55.840;37.442;2024-03-08T12:08:02;99431.28;;;0.68;66.48
56074;BME280;41950;55.840;37.442;2024-03-08T12:10:28;99421.56;;;0.50;66.97
56074;BME280;41950;55.840;37.442;2024-03-08T12:12:55;99425.19;;;0.59;66.89
56074;BME280;41950;55.840;37.442;2024-03-08T12:15:23;99431.34;;;0.71;67.13
56074;BME280;41950;55.840;37.442;2024-03-08T12:17:51;99432.38;;;0.82;66.12
56074;BME280;41950;55.840;37.442;2024-03-08T12:20:21;99423.16;;;0.88;66.31
56074;BME280;41950;55.840;37.442;2024-03-08T12:22:48;99420.28;;;1.21;65.53
56074;BME280;41950;55.840;37.442;2024-03-08T12:25:14;99375.84;;;1.12;64.67
56074;BME280;41950;55.840;37.442;2024-03-08T12:27:42;99375.16;;;1.23;64.64
56074;BME280;41950;55.840;37.442;2024-03-08T12:30:22;99433.56;;;1.53;64.56
56074;BME280;41950;55.840;37.442;2024-03-08T12:32:54;99430.16;;;1.54;63.88
56074;BME280;41950;55.840;37.442;2024-03-08T12:35:23;99416.03;;;1.22;64.22
56074;BME280;41950;55.840;37.442;2024-03-08T12:37:54;99414.28;;;1.19;64.80
56074;BME280;41950;55.840;37.442;2024-03-08T12:40:31;99426.44;;;1.36;64.72
56074;BME280;41950;55.840;37.442;2024-03-08T12:43:02;99402.66;;;1.38;63.93
56074;BME280;41950;55.840;37.442;2024-03-08T12:45:28;99389.88;;;1.38;63.86
56074;BME280;41950;55.840;37.442;2024-03-08T12:47:55;99419.88;;;1.51;62.88
56074;BME280;41950;55.840;37.442;2024-03-08T12:50:24;99424.03;;;1.43;63.19
56074;BME280;41950;55.840;37.442;2024-03-08T12:52:52;99427.66;;;1.59;62.69
56074;BME280;41950;55.840;37.442;2024-03-08T12:55:18;99413.81;;;1.45;62.89
56074;BME280;41950;55.840;37.442;2024-03-08T12:57:44;99432.72;;;1.56;62.73
56074;BME280;41950;55.840;37.442;2024-03-08T13:00:11;99437.16;;;1.65;62.57
56074;BME280;41950;55.840;37.442;2024-03-08T13:02:45;99441.25;;;1.57;62.23
56074;BME280;41950;55.840;37.442;2024-03-08T13:05:11;99425.38;;;1.20;62.63
56074;BME280;41950;55.840;37.442;2024-03-08T13:07:40;99437.34;;;1.22;63.01
56074;BME280;41950;55.840;37.442;2024-03-08T13:10:06;99427.59;;;1.00;63.36